createdAt,value
2018-09-05T00:00:38.851Z,1003.40
2018-09-05T00:01:38.871Z,1003.42
2018-09-05T00:02:39.092Z,1003.41
2018-09-05T00:03:38.898Z,1003.40
2018-09-05T00:04:38.919Z,1003.42
2018-09-05T00:05:38.935Z,1003.40
2018-09-05T00:06:38.960Z,1003.45
2018-09-05T00:07:39.012Z,1003.42
2018-09-05T00:08:38.991Z,1003.41
2018-09-05T00:09:39.012Z,1003.41
2018-09-05T00:10:39.024Z,1003.41
2018-09-05T00:11:39.047Z,1003.39
2018-09-05T00:12:39.056Z,1003.40
2018-09-05T00:13:39.079Z,1003.41
2018-09-05T00:14:39.291Z,1003.36
2018-09-05T00:15:39.312Z,1003.38
2018-09-05T00:16:39.324Z,1003.35
2018-09-05T00:17:39.151Z,1003.36
2018-09-05T00:18:39.164Z,1003.39
2018-09-05T00:19:39.180Z,1003.36
2018-09-05T00:20:39.403Z,1003.39
2018-09-05T00:21:39.213Z,1003.36
2018-09-05T00:22:39.228Z,1003.35
2018-09-05T00:23:39.252Z,1003.32
2018-09-05T00:24:39.265Z,1003.34
2018-09-05T00:25:39.288Z,1003.33
2018-09-05T00:26:39.381Z,1003.30
2018-09-05T00:27:39.320Z,1003.29
2018-09-05T00:28:39.332Z,1003.28
2018-09-05T00:29:39.353Z,1003.28
2018-09-05T00:30:39.367Z,1003.25
2018-09-05T00:31:39.588Z,1003.23
2018-09-05T00:32:39.494Z,1003.20
2018-09-05T00:33:39.420Z,1003.18
2018-09-05T00:34:39.442Z,1003.19
2018-09-05T00:35:39.464Z,1003.19
2018-09-05T00:36:39.472Z,1003.25
2018-09-05T00:37:39.493Z,1003.20
2018-09-05T00:38:39.537Z,1003.23
2018-09-05T00:39:39.529Z,1003.21
2018-09-05T00:40:39.549Z,1003.21
2018-09-05T00:41:39.565Z,1003.18
2018-09-05T00:42:39.576Z,1003.21
2018-09-05T00:43:39.797Z,1003.18
2018-09-05T00:44:39.631Z,1003.19
2018-09-05T00:45:39.634Z,1003.19
2018-09-05T00:46:39.649Z,1003.19
2018-09-05T00:47:39.664Z,1003.20
2018-09-05T00:48:39.681Z,1003.21
2018-09-05T00:49:39.909Z,1003.15
2018-09-05T00:50:39.712Z,1003.12
2018-09-05T00:51:39.736Z,1003.15
2018-09-05T00:52:39.744Z,1003.13
2018-09-05T00:53:39.769Z,1003.12
2018-09-05T00:54:39.789Z,1003.13
2018-09-05T00:55:39.997Z,1003.08
2018-09-05T00:56:39.813Z,1003.08
2018-09-05T00:57:39.828Z,1003.10
2018-09-05T00:58:39.848Z,1003.10
2018-09-05T00:59:39.875Z,1003.12
2018-09-05T01:00:39.878Z,1003.15
2018-09-05T01:01:39.905Z,1003.14
2018-09-05T01:02:39.921Z,1003.15
2018-09-05T01:03:39.938Z,1003.15
2018-09-05T01:04:39.949Z,1003.15
2018-09-05T01:05:39.970Z,1003.12
2018-09-05T01:06:39.986Z,1003.10
2018-09-05T01:07:40.201Z,1003.14
2018-09-05T01:08:40.017Z,1003.12
2018-09-05T01:09:40.097Z,1003.09
2018-09-05T01:10:40.057Z,1003.09
2018-09-05T01:11:40.073Z,1003.08
2018-09-05T01:12:40.085Z,1003.07
2018-09-05T01:13:40.110Z,1003.07
2018-09-05T01:14:40.122Z,1003.06
2018-09-05T01:15:40.135Z,1003.03
2018-09-05T01:16:40.149Z,1003.04
2018-09-05T01:17:40.170Z,1003.02
2018-09-05T01:18:40.193Z,1003.04
2018-09-05T01:19:40.210Z,1003.02
2018-09-05T01:20:40.223Z,1003.00
2018-09-05T01:21:40.241Z,1003.00
2018-09-05T01:22:40.259Z,1003.04
2018-09-05T01:23:40.269Z,1003.02
2018-09-05T01:24:40.290Z,1003.02
2018-09-05T01:25:40.310Z,1003.03
2018-09-05T01:26:40.332Z,1003.03
2018-09-05T01:27:40.338Z,1003.06
2018-09-05T01:28:40.560Z,1003.03
2018-09-05T01:29:40.573Z,1003.05
2018-09-05T01:30:40.398Z,1003.03
2018-09-05T01:31:40.413Z,1003.04
2018-09-05T01:32:40.433Z,1003.00
2018-09-05T01:33:40.442Z,1003.03
2018-09-05T01:34:40.462Z,1003.03
2018-09-05T01:35:40.478Z,1003.02
2018-09-05T01:36:40.495Z,1003.05
2018-09-05T01:37:40.710Z,1003.03
2018-09-05T01:38:40.533Z,1003.05
2018-09-05T01:39:40.546Z,1003.02
2018-09-05T01:40:40.565Z,1003.04
2018-09-05T01:41:40.670Z,1003.04
2018-09-05T01:42:40.599Z,1003.06
2018-09-05T01:43:40.823Z,1003.10
2018-09-05T01:44:40.634Z,1003.07
2018-09-05T01:45:40.653Z,1003.04
2018-09-05T01:46:40.671Z,1003.06
2018-09-05T01:47:40.711Z,1003.09
2018-09-05T01:48:40.700Z,1003.06
2018-09-05T01:49:40.920Z,1003.08
2018-09-05T01:50:40.739Z,1003.08
2018-09-05T01:51:40.754Z,1003.06
2018-09-05T01:52:40.774Z,1003.05
2018-09-05T01:53:40.847Z,1003.05
2018-09-05T01:54:40.810Z,1003.04
2018-09-05T01:55:41.021Z,1003.05
2018-09-05T01:56:40.842Z,1003.05
2018-09-05T01:57:40.854Z,1003.08
2018-09-05T01:58:40.879Z,1003.06
2018-09-05T01:59:40.892Z,1003.02
2018-09-05T02:00:40.903Z,1003.06
2018-09-05T02:01:40.928Z,1003.06
2018-09-05T02:02:40.942Z,1003.05
2018-09-05T02:03:40.955Z,1003.04
2018-09-05T02:04:40.970Z,1003.06
2018-09-05T02:05:41.067Z,1003.06
2018-09-05T02:06:41.007Z,1003.04
2018-09-05T02:07:41.226Z,1003.06
2018-09-05T02:08:41.047Z,1003.05
2018-09-05T02:09:41.058Z,1003.04
2018-09-05T02:10:41.075Z,1003.08
2018-09-05T02:11:41.123Z,1003.09
2018-09-05T02:12:41.120Z,1003.10
2018-09-05T02:13:41.326Z,1003.11
2018-09-05T02:14:41.146Z,1003.12
2018-09-05T02:15:41.163Z,1003.13
2018-09-05T02:16:41.378Z,1003.12
2018-09-05T02:17:41.394Z,1003.14
2018-09-05T02:18:41.215Z,1003.12
2018-09-05T02:19:41.430Z,1003.12
2018-09-05T02:20:41.245Z,1003.10
2018-09-05T02:21:41.265Z,1003.11
2018-09-05T02:22:41.279Z,1003.13
2018-09-05T02:23:41.294Z,1003.13
2018-09-05T02:24:41.314Z,1003.12
2018-09-05T02:25:41.529Z,1003.14
2018-09-05T02:26:41.347Z,1003.13
2018-09-05T02:27:41.403Z,1003.17
2018-09-05T02:28:41.380Z,1003.13
2018-09-05T02:29:41.394Z,1003.14
2018-09-05T02:30:41.419Z,1003.16
2018-09-05T02:31:41.435Z,1003.15
2018-09-05T02:32:41.447Z,1003.14
2018-09-05T02:33:41.466Z,1003.14
2018-09-05T02:34:41.486Z,1003.17
2018-09-05T02:35:41.503Z,1003.17
2018-09-05T02:36:41.518Z,1003.18
2018-09-05T02:37:41.526Z,1003.15
2018-09-05T02:38:41.546Z,1003.19
2018-09-05T02:39:41.563Z,1003.19
2018-09-05T02:40:41.629Z,1003.22
2018-09-05T02:41:41.595Z,1003.25
2018-09-05T02:42:41.614Z,1003.25
2018-09-05T02:43:41.631Z,1003.27
2018-09-05T02:44:41.651Z,1003.27
2018-09-05T02:45:41.662Z,1003.24
2018-09-05T02:46:41.684Z,1003.23
2018-09-05T02:47:41.702Z,1003.23
2018-09-05T02:48:41.767Z,1003.20
2018-09-05T02:49:41.934Z,1003.22
2018-09-05T02:50:41.751Z,1003.26
2018-09-05T02:51:41.971Z,1003.26
2018-09-05T02:52:41.982Z,1003.26
2018-09-05T02:53:41.803Z,1003.29
2018-09-05T02:54:41.861Z,1003.29
2018-09-05T02:55:41.835Z,1003.25
2018-09-05T02:56:41.846Z,1003.25
2018-09-05T02:57:41.868Z,1003.20
2018-09-05T02:58:41.887Z,1003.20
2018-09-05T02:59:41.899Z,1003.22
2018-09-05T03:00:41.941Z,1003.22
2018-09-05T03:02:49.566Z,1003.17
2018-09-05T03:03:41.971Z,1003.17
2018-09-05T03:04:41.986Z,1003.20
2018-09-05T03:05:41.999Z,1003.19
2018-09-05T03:06:42.023Z,1003.22
2018-09-05T03:07:42.038Z,1003.19
2018-09-05T03:08:42.108Z,1003.14
2018-09-05T03:09:42.067Z,1003.13
2018-09-05T03:10:42.091Z,1003.16
2018-09-05T03:11:42.102Z,1003.15
2018-09-05T03:12:42.115Z,1003.13
2018-09-05T03:13:42.144Z,1003.12
2018-09-05T03:14:42.155Z,1003.13
2018-09-05T03:15:42.166Z,1003.12
2018-09-05T03:16:42.182Z,1003.16
2018-09-05T03:17:42.203Z,1003.13
2018-09-05T03:18:42.215Z,1003.13
2018-09-05T03:19:42.235Z,1003.14
2018-09-05T03:20:42.251Z,1003.17
2018-09-05T03:21:42.270Z,1003.17
2018-09-05T03:22:42.286Z,1003.15
2018-09-05T03:23:42.307Z,1003.16
2018-09-05T03:24:42.318Z,1003.15
2018-09-05T03:25:42.359Z,1003.15
2018-09-05T03:26:42.356Z,1003.16
2018-09-05T03:27:42.370Z,1003.16
2018-09-05T03:28:42.391Z,1003.17
2018-09-05T03:29:42.402Z,1003.18
2018-09-05T03:30:42.423Z,1003.16
2018-09-05T03:31:42.512Z,1003.16
2018-09-05T03:32:42.599Z,1003.17
2018-09-05T03:33:42.474Z,1003.16
2018-09-05T03:34:42.490Z,1003.16
2018-09-05T03:35:42.511Z,1003.18
2018-09-05T03:36:42.524Z,1003.15
2018-09-05T03:37:42.563Z,1003.21
2018-09-05T03:38:42.565Z,1003.19
2018-09-05T03:39:42.574Z,1003.24
2018-09-05T03:40:42.591Z,1003.24
2018-09-05T03:41:42.613Z,1003.22
2018-09-05T03:42:42.628Z,1003.24
2018-09-05T03:43:42.691Z,1003.26
2018-09-05T03:44:42.663Z,1003.28
2018-09-05T03:45:42.675Z,1003.25
2018-09-05T03:46:42.695Z,1003.32
2018-09-05T03:47:42.711Z,1003.28
2018-09-05T03:48:42.728Z,1003.33
2018-09-05T03:49:42.891Z,1003.32
2018-09-05T03:50:42.765Z,1003.32
2018-09-05T03:51:42.778Z,1003.31
2018-09-05T03:52:42.795Z,1003.32
2018-09-05T03:53:42.810Z,1003.32
2018-09-05T03:54:42.831Z,1003.30
2018-09-05T03:55:42.926Z,1003.29
2018-09-05T03:56:42.866Z,1003.28
2018-09-05T03:57:42.883Z,1003.29
2018-09-05T03:58:42.895Z,1003.28
2018-09-05T03:59:42.916Z,1003.30
2018-09-05T04:00:42.931Z,1003.27
2018-09-05T04:01:42.983Z,1003.28
2018-09-05T04:02:42.968Z,1003.28
2018-09-05T04:03:42.983Z,1003.25
2018-09-05T04:04:42.998Z,1003.27
2018-09-05T04:05:43.017Z,1003.27
2018-09-05T04:06:43.029Z,1003.27
2018-09-05T04:07:43.147Z,1003.28
2018-09-05T04:08:43.063Z,1003.27
2018-09-05T04:09:43.085Z,1003.23
2018-09-05T04:10:43.094Z,1003.28
2018-09-05T04:11:43.122Z,1003.30
2018-09-05T04:12:43.130Z,1003.31
2018-09-05T04:13:43.146Z,1003.29
2018-09-05T04:14:43.167Z,1003.28
2018-09-05T04:15:43.182Z,1003.25
2018-09-05T04:16:43.199Z,1003.25
2018-09-05T04:17:43.210Z,1003.25
2018-09-05T04:18:43.232Z,1003.24
2018-09-05T04:19:43.250Z,1003.28
2018-09-05T04:20:43.274Z,1003.29
2018-09-05T04:21:43.306Z,1003.29
2018-09-05T04:22:43.302Z,1003.27
2018-09-05T04:23:43.318Z,1003.31
2018-09-05T04:24:43.334Z,1003.31
2018-09-05T04:25:43.559Z,1003.39
2018-09-05T04:26:43.566Z,1003.40
2018-09-05T04:27:43.387Z,1003.36
2018-09-05T04:28:43.410Z,1003.37
2018-09-05T04:29:43.493Z,1003.38
2018-09-05T04:30:43.438Z,1003.38
2018-09-05T04:31:43.464Z,1003.38
2018-09-05T04:32:43.547Z,1003.38
2018-09-05T04:33:43.493Z,1003.41
2018-09-05T04:34:43.511Z,1003.40
2018-09-05T04:35:43.519Z,1003.41
2018-09-05T04:36:43.534Z,1003.43
2018-09-05T04:37:43.558Z,1003.41
2018-09-05T04:38:43.639Z,1003.45
2018-09-05T04:39:43.587Z,1003.43
2018-09-05T04:40:43.606Z,1003.43
2018-09-05T04:41:43.628Z,1003.45
2018-09-05T04:42:43.634Z,1003.48
2018-09-05T04:43:43.659Z,1003.49
2018-09-05T04:44:43.699Z,1003.52
2018-09-05T04:45:43.690Z,1003.50
2018-09-05T04:46:43.706Z,1003.53
2018-09-05T04:47:43.718Z,1003.49
2018-09-05T04:48:43.734Z,1003.51
2018-09-05T04:49:43.761Z,1003.51
2018-09-05T04:50:43.771Z,1003.50
2018-09-05T04:51:43.790Z,1003.57
2018-09-05T04:52:43.845Z,1003.59
2018-09-05T04:53:43.822Z,1003.57
2018-09-05T04:54:43.838Z,1003.60
2018-09-05T04:55:43.858Z,1003.59
2018-09-05T04:56:43.913Z,1003.59
2018-09-05T04:57:43.891Z,1003.65
2018-09-05T04:58:43.910Z,1003.61
2018-09-05T04:59:43.922Z,1003.63
2018-09-05T05:00:43.947Z,1003.61
2018-09-05T05:01:43.963Z,1003.66
2018-09-05T05:02:44.010Z,1003.61
2018-09-05T05:03:44.000Z,1003.61
2018-09-05T05:04:44.011Z,1003.62
2018-09-05T05:05:44.064Z,1003.58
2018-09-05T05:06:44.053Z,1003.61
2018-09-05T05:07:44.174Z,1003.59
2018-09-05T05:08:44.078Z,1003.57
2018-09-05T05:09:44.098Z,1003.59
2018-09-05T05:10:44.110Z,1003.59
2018-09-05T05:11:44.131Z,1003.57
2018-09-05T05:12:44.150Z,1003.55
2018-09-05T05:13:44.167Z,1003.55
2018-09-05T05:14:44.187Z,1003.54
2018-09-05T05:15:44.198Z,1003.56
2018-09-05T05:16:44.218Z,1003.56
2018-09-05T05:17:44.234Z,1003.57
2018-09-05T05:18:44.250Z,1003.59
2018-09-05T05:19:44.271Z,1003.62
2018-09-05T05:20:44.293Z,1003.61
2018-09-05T05:21:44.345Z,1003.59
2018-09-05T05:22:44.319Z,1003.58
2018-09-05T05:23:44.338Z,1003.60
2018-09-05T05:24:44.350Z,1003.61
2018-09-05T05:25:44.375Z,1003.61
2018-09-05T05:26:44.386Z,1003.60
2018-09-05T05:27:44.489Z,1003.66
2018-09-05T05:28:44.422Z,1003.65
2018-09-05T05:29:44.437Z,1003.66
2018-09-05T05:30:44.449Z,1003.65
2018-09-05T05:31:44.469Z,1003.66
2018-09-05T05:32:44.622Z,1003.68
2018-09-05T05:33:44.706Z,1003.65
2018-09-05T05:34:44.518Z,1003.73
2018-09-05T05:35:44.537Z,1003.77
2018-09-05T05:36:44.553Z,1003.74
2018-09-05T05:37:44.570Z,1003.78
2018-09-05T05:38:44.593Z,1003.74
2018-09-05T05:39:44.606Z,1003.76
2018-09-05T05:40:44.622Z,1003.75
2018-09-05T05:41:44.639Z,1003.77
2018-09-05T05:42:44.657Z,1003.77
2018-09-05T05:43:44.676Z,1003.74
2018-09-05T05:44:44.688Z,1003.75
2018-09-05T05:45:44.709Z,1003.76
2018-09-05T05:46:44.758Z,1003.77
2018-09-05T05:47:44.742Z,1003.77
2018-09-05T05:48:44.757Z,1003.78
2018-09-05T05:49:44.777Z,1003.79
2018-09-05T05:50:44.794Z,1003.84
2018-09-05T05:51:44.815Z,1003.89
2018-09-05T05:52:44.873Z,1003.86
2018-09-05T05:53:44.841Z,1003.87
2018-09-05T05:54:44.860Z,1003.91
2018-09-05T05:55:44.873Z,1003.92
2018-09-05T05:56:44.897Z,1003.91
2018-09-05T05:57:44.913Z,1003.93
2018-09-05T05:58:44.961Z,1003.97
2018-09-05T05:59:44.941Z,1003.94
2018-09-05T06:00:44.981Z,1003.94
2018-09-05T06:01:44.976Z,1003.92
2018-09-05T06:02:44.992Z,1003.98
2018-09-05T06:03:45.012Z,1003.98
2018-09-05T06:04:45.059Z,1003.94
2018-09-05T06:05:45.050Z,1003.96
2018-09-05T06:06:45.061Z,1003.98
2018-09-05T06:07:45.088Z,1004.00
2018-09-05T06:08:45.093Z,1003.99
2018-09-05T06:09:45.112Z,1004.02
2018-09-05T06:10:45.133Z,1003.99
2018-09-05T06:11:45.147Z,1004.02
2018-09-05T06:12:45.161Z,1004.02
2018-09-05T06:13:45.181Z,1004.02
2018-09-05T06:14:45.197Z,1004.02
2018-09-05T06:15:45.217Z,1004.03
2018-09-05T06:16:45.229Z,1004.04
2018-09-05T06:17:45.444Z,1004.08
2018-09-05T06:18:45.270Z,1004.09
2018-09-05T06:19:45.287Z,1004.10
2018-09-05T06:20:45.296Z,1004.10
2018-09-05T06:21:45.308Z,1004.13
2018-09-05T06:22:45.325Z,1004.12
2018-09-05T06:23:45.345Z,1004.14
2018-09-05T06:24:45.360Z,1004.18
2018-09-05T06:25:45.376Z,1004.20
2018-09-05T06:26:45.396Z,1004.24
2018-09-05T06:27:45.449Z,1004.25
2018-09-05T06:28:45.425Z,1004.27
2018-09-05T06:29:45.449Z,1004.31
2018-09-05T06:30:45.660Z,1004.31
2018-09-05T06:31:45.476Z,1004.32
2018-09-05T06:32:45.495Z,1004.34
2018-09-05T06:33:45.512Z,1004.38
2018-09-05T06:34:45.618Z,1004.40
2018-09-05T06:35:45.564Z,1004.48
2018-09-05T06:36:45.628Z,1004.49
2018-09-05T06:37:45.579Z,1004.49
2018-09-05T06:38:45.596Z,1004.51
2018-09-05T06:39:45.612Z,1004.54
2018-09-05T06:40:45.639Z,1004.57
2018-09-05T06:41:45.644Z,1004.55
2018-09-05T06:42:45.663Z,1004.58
2018-09-05T06:43:45.685Z,1004.55
2018-09-05T06:44:45.698Z,1004.59
2018-09-05T06:45:45.711Z,1004.60
2018-09-05T06:46:45.727Z,1004.63
2018-09-05T06:47:45.748Z,1004.63
2018-09-05T06:48:45.764Z,1004.64
2018-09-05T06:49:45.785Z,1004.61
2018-09-05T06:50:45.800Z,1004.65
2018-09-05T06:51:45.816Z,1004.63
2018-09-05T06:52:45.828Z,1004.64
2018-09-05T06:53:45.842Z,1004.66
2018-09-05T06:54:45.859Z,1004.68
2018-09-05T06:55:45.907Z,1004.68
2018-09-05T06:56:45.895Z,1004.70
2018-09-05T06:57:45.911Z,1004.73
2018-09-05T06:58:45.935Z,1004.68
2018-09-05T06:59:45.959Z,1004.73
2018-09-05T07:00:45.968Z,1004.68
2018-09-05T07:01:45.982Z,1004.73
2018-09-05T07:02:46.000Z,1004.69
2018-09-05T07:03:46.062Z,1004.75
2018-09-05T07:04:46.035Z,1004.77
2018-09-05T07:05:46.056Z,1004.81
2018-09-05T07:06:46.143Z,1004.80
2018-09-05T07:07:46.094Z,1004.79
2018-09-05T07:08:46.101Z,1004.79
2018-09-05T07:09:46.323Z,1004.84
2018-09-05T07:10:46.339Z,1004.81
2018-09-05T07:11:46.151Z,1004.86
2018-09-05T07:12:46.167Z,1004.83
2018-09-05T07:13:46.245Z,1004.88
2018-09-05T07:14:46.207Z,1004.86
2018-09-05T07:15:46.215Z,1004.90
2018-09-05T07:16:46.236Z,1004.88
2018-09-05T07:17:46.255Z,1004.88
2018-09-05T07:18:46.268Z,1004.88
2018-09-05T07:19:46.341Z,1004.84
2018-09-05T07:20:46.299Z,1004.92
2018-09-05T07:21:46.318Z,1004.94
2018-09-05T07:22:46.339Z,1004.93
2018-09-05T07:23:46.350Z,1004.96
2018-09-05T07:24:46.417Z,1004.96
2018-09-05T07:25:46.387Z,1004.97
2018-09-05T07:26:46.403Z,1005.00
2018-09-05T07:27:46.418Z,1005.02
2018-09-05T07:28:46.439Z,1005.03
2018-09-05T07:29:46.455Z,1005.05
2018-09-05T07:30:46.684Z,1005.05
2018-09-05T07:31:46.694Z,1005.06
2018-09-05T07:32:46.510Z,1005.07
2018-09-05T07:33:46.522Z,1005.09
2018-09-05T07:34:46.539Z,1005.08
2018-09-05T07:35:46.681Z,1005.05
2018-09-05T07:36:46.574Z,1005.04
2018-09-05T07:37:46.666Z,1005.03
2018-09-05T07:38:46.610Z,1005.00
2018-09-05T07:39:46.630Z,1005.02
2018-09-05T07:40:46.642Z,1005.02
2018-09-05T07:41:46.658Z,1005.03
2018-09-05T07:42:46.881Z,1005.06
2018-09-05T07:43:46.954Z,1005.03
2018-09-05T07:44:46.713Z,1005.13
2018-09-05T07:45:46.733Z,1005.12
2018-09-05T07:46:46.953Z,1005.14
2018-09-05T07:47:46.967Z,1005.12
2018-09-05T07:48:46.786Z,1005.11
2018-09-05T07:49:46.802Z,1005.18
2018-09-05T07:50:46.881Z,1005.16
2018-09-05T07:51:46.840Z,1005.14
2018-09-05T07:52:46.860Z,1005.18
2018-09-05T07:53:46.869Z,1005.20
2018-09-05T07:54:46.894Z,1005.18
2018-09-05T07:55:46.909Z,1005.20
2018-09-05T07:56:46.923Z,1005.21
2018-09-05T07:57:46.947Z,1005.25
2018-09-05T07:58:46.965Z,1005.24
2018-09-05T07:59:46.978Z,1005.22
2018-09-05T08:00:47.002Z,1005.25
2018-09-05T08:01:47.017Z,1005.29
2018-09-05T08:02:47.040Z,1005.30
2018-09-05T08:03:47.053Z,1005.32
2018-09-05T08:04:47.066Z,1005.29
2018-09-05T08:05:47.085Z,1005.28
2018-09-05T08:06:47.102Z,1005.28
2018-09-05T08:07:47.120Z,1005.28
2018-09-05T08:08:47.161Z,1005.31
2018-09-05T08:09:47.161Z,1005.31
2018-09-05T08:10:47.181Z,1005.33
2018-09-05T08:11:47.296Z,1005.37
2018-09-05T08:12:47.208Z,1005.36
2018-09-05T08:13:47.234Z,1005.32
2018-09-05T08:14:47.261Z,1005.35
2018-09-05T08:15:47.268Z,1005.36
2018-09-05T08:16:47.284Z,1005.36
2018-09-05T08:17:47.301Z,1005.36
2018-09-05T08:18:47.320Z,1005.38
2018-09-05T08:19:47.347Z,1005.34
2018-09-05T08:20:47.357Z,1005.33
2018-09-05T08:21:47.379Z,1005.38
2018-09-05T08:22:47.392Z,1005.38
2018-09-05T08:23:47.408Z,1005.38
2018-09-05T08:24:47.426Z,1005.39
2018-09-05T08:25:47.443Z,1005.44
2018-09-05T08:26:47.463Z,1005.46
2018-09-05T08:27:47.483Z,1005.46
2018-09-05T08:28:47.544Z,1005.45
2018-09-05T08:29:47.517Z,1005.46
2018-09-05T08:30:47.529Z,1005.47
2018-09-05T08:31:47.564Z,1005.49
2018-09-05T08:32:47.568Z,1005.45
2018-09-05T08:33:47.593Z,1005.50
2018-09-05T08:34:47.655Z,1005.51
2018-09-05T08:35:47.958Z,1005.52
2018-09-05T08:36:47.865Z,1005.54
2018-09-05T08:37:47.757Z,1005.59
2018-09-05T08:38:47.714Z,1005.58
2018-09-05T08:39:47.745Z,1005.58
2018-09-05T08:40:47.720Z,1005.59
2018-09-05T08:41:47.750Z,1005.63
2018-09-05T08:42:47.869Z,1005.64
2018-09-05T08:43:47.899Z,1005.64
2018-09-05T08:44:48.126Z,1005.64
2018-09-05T08:45:48.081Z,1005.66
2018-09-05T08:46:47.860Z,1005.67
2018-09-05T08:47:47.893Z,1005.66
2018-09-05T08:48:47.852Z,1005.67
2018-09-05T08:49:47.868Z,1005.69
2018-09-05T08:50:47.892Z,1005.71
2018-09-05T08:51:47.901Z,1005.72
2018-09-05T08:52:47.945Z,1005.75
2018-09-05T08:53:47.937Z,1005.72
2018-09-05T08:54:47.958Z,1005.74
2018-09-05T08:55:48.023Z,1005.76
2018-09-05T08:56:47.997Z,1005.71
2018-09-05T08:57:48.007Z,1005.74
2018-09-05T08:58:48.086Z,1005.73
2018-09-05T08:59:48.047Z,1005.75
2018-09-05T09:00:48.067Z,1005.80
2018-09-05T09:01:48.079Z,1005.75
2018-09-05T09:02:48.097Z,1005.77
2018-09-05T09:03:48.173Z,1005.74
2018-09-05T09:04:48.137Z,1005.73
2018-09-05T09:05:48.148Z,1005.74
2018-09-05T09:06:48.172Z,1005.76
2018-09-05T09:07:48.184Z,1005.73
2018-09-05T09:08:48.208Z,1005.76
2018-09-05T09:09:48.229Z,1005.79
2018-09-05T09:10:48.241Z,1005.75
2018-09-05T09:11:48.326Z,1005.77
2018-09-05T09:12:48.273Z,1005.74
2018-09-05T09:13:48.296Z,1005.80
2018-09-05T09:14:48.320Z,1005.78
2018-09-05T09:15:48.359Z,1005.79
2018-09-05T09:16:48.348Z,1005.84
2018-09-05T09:17:48.371Z,1005.82
2018-09-05T09:18:48.385Z,1005.85
2018-09-05T09:19:48.412Z,1005.85
2018-09-05T09:20:48.422Z,1005.88
2018-09-05T09:21:48.520Z,1005.92
2018-09-05T09:22:48.454Z,1005.89
2018-09-05T09:23:48.479Z,1005.94
2018-09-05T09:24:48.492Z,1005.90
2018-09-05T09:25:48.523Z,1005.90
2018-09-05T09:26:48.532Z,1005.89
2018-09-05T09:27:48.556Z,1005.91
2018-09-05T09:28:48.561Z,1005.90
2018-09-05T09:29:48.585Z,1005.92
2018-09-05T09:30:48.605Z,1005.93
2018-09-05T09:31:48.621Z,1005.92
2018-09-05T09:32:48.637Z,1005.99
2018-09-05T09:33:48.652Z,1005.98
2018-09-05T09:34:48.668Z,1005.94
2018-09-05T09:35:48.693Z,1005.95
2018-09-05T09:36:48.709Z,1005.98
2018-09-05T09:37:48.725Z,1005.96
2018-09-05T09:38:48.753Z,1005.97
2018-09-05T09:39:48.760Z,1005.98
2018-09-05T09:40:48.776Z,1006.02
2018-09-05T09:41:48.793Z,1006.02
2018-09-05T09:42:48.812Z,1006.01
2018-09-05T09:43:48.884Z,1006.01
2018-09-05T09:44:48.952Z,1006.02
2018-09-05T09:45:48.876Z,1006.02
2018-09-05T09:46:48.885Z,1006.02
2018-09-05T09:47:48.907Z,1006.03
2018-09-05T09:48:48.973Z,1006.01
2018-09-05T09:49:48.976Z,1006.01
2018-09-05T09:51:48.981Z,1006.02
2018-09-05T09:52:48.997Z,1006.01
2018-09-05T09:53:49.013Z,1005.96
2018-09-05T09:54:49.032Z,1006.00
2018-09-05T09:55:49.056Z,1006.03
2018-09-05T09:56:49.074Z,1006.06
2018-09-05T09:57:49.092Z,1006.06
2018-09-05T09:58:49.108Z,1006.03
2018-09-05T09:59:49.134Z,1006.04
2018-09-05T10:00:49.146Z,1006.06
2018-09-05T10:01:49.167Z,1006.10
2018-09-05T10:02:49.186Z,1006.06
2018-09-05T10:03:49.338Z,1006.11
2018-09-05T10:04:49.259Z,1006.06
2018-09-05T10:05:49.243Z,1006.07
2018-09-05T10:06:49.331Z,1006.04
2018-09-05T10:07:49.276Z,1006.08
2018-09-05T10:08:49.292Z,1006.09
2018-09-05T10:09:49.461Z,1006.04
2018-09-05T10:10:49.332Z,1006.00
2018-09-05T10:11:49.352Z,1006.07
2018-09-05T10:12:49.373Z,1006.07
2018-09-05T10:13:49.390Z,1006.09
2018-09-05T10:14:49.422Z,1006.10
2018-09-05T10:15:49.453Z,1006.10
2018-09-05T10:16:49.446Z,1006.06
2018-09-05T10:17:49.472Z,1006.09
2018-09-05T10:18:49.493Z,1006.09
2018-09-05T10:19:49.508Z,1006.09
2018-09-05T10:20:49.564Z,1006.05
2018-09-05T10:21:49.544Z,1006.08
2018-09-05T10:22:49.565Z,1006.04
2018-09-05T10:23:49.589Z,1006.04
2018-09-05T10:24:49.607Z,1006.04
2018-09-05T10:25:49.625Z,1006.04
2018-09-05T10:26:49.641Z,1006.06
2018-09-05T10:27:49.657Z,1006.07
2018-09-05T10:28:49.684Z,1006.06
2018-09-05T10:29:49.700Z,1006.03
2018-09-05T10:30:49.723Z,1006.01
2018-09-05T10:31:49.823Z,1006.05
2018-09-05T10:32:49.957Z,1006.03
2018-09-05T10:33:49.981Z,1006.05
2018-09-05T10:34:49.801Z,1006.05
2018-09-05T10:35:49.813Z,1006.06
2018-09-05T10:36:49.843Z,1006.03
2018-09-05T10:37:49.853Z,1006.05
2018-09-05T10:38:49.881Z,1006.01
2018-09-05T10:39:49.897Z,1006.02
2018-09-05T10:40:49.912Z,1006.00
2018-09-05T10:41:49.938Z,1006.02
2018-09-05T10:42:49.951Z,1006.02
2018-09-05T10:43:49.973Z,1006.05
2018-09-05T10:44:49.995Z,1006.12
2018-09-05T10:45:50.035Z,1006.15
2018-09-05T10:46:50.036Z,1006.06
2018-09-05T10:47:50.059Z,1006.04
2018-09-05T10:48:50.070Z,1006.08
2018-09-05T10:49:50.097Z,1006.10
2018-09-05T10:50:50.117Z,1006.12
2018-09-05T10:51:50.202Z,1006.13
2018-09-05T10:52:50.152Z,1006.11
2018-09-05T10:53:50.173Z,1006.12
2018-09-05T10:54:50.193Z,1006.11
2018-09-05T10:55:50.217Z,1006.12
2018-09-05T10:56:50.339Z,1006.02
2018-09-05T10:57:50.301Z,1006.10
2018-09-05T10:58:50.288Z,1006.04
2018-09-05T10:59:50.308Z,1006.09
2018-09-05T11:00:50.326Z,1006.03
2018-09-05T11:01:50.341Z,1006.01
2018-09-05T11:02:50.369Z,1005.97
2018-09-05T11:03:50.401Z,1005.97
2018-09-05T11:04:50.404Z,1005.96
2018-09-05T11:05:50.432Z,1005.96
2018-09-05T11:06:50.448Z,1005.99
2018-09-05T11:07:50.470Z,1005.92
2018-09-05T11:08:50.497Z,1005.91
2018-09-05T11:09:50.516Z,1005.91
2018-09-05T11:10:50.668Z,1005.93
2018-09-05T11:11:50.556Z,1005.93
2018-09-05T11:12:50.578Z,1005.94
2018-09-05T11:13:50.593Z,1005.90
2018-09-05T11:14:50.617Z,1005.98
2018-09-05T11:15:50.637Z,1006.02
2018-09-05T11:16:50.656Z,1005.90
2018-09-05T11:17:50.687Z,1005.89
2018-09-05T11:18:50.704Z,1005.87
2018-09-05T11:19:50.729Z,1005.84
2018-09-05T11:20:50.748Z,1005.84
2018-09-05T11:21:50.768Z,1005.86
2018-09-05T11:22:50.788Z,1005.80
2018-09-05T11:23:50.809Z,1005.83
2018-09-05T11:24:50.829Z,1005.80
2018-09-05T11:25:50.857Z,1005.81
2018-09-05T11:26:50.877Z,1005.80
2018-09-05T11:27:50.892Z,1005.83
2018-09-05T11:28:50.964Z,1005.81
2018-09-05T11:29:50.941Z,1005.84
2018-09-05T11:30:50.961Z,1005.81
2018-09-05T11:31:50.985Z,1005.86
2018-09-05T11:32:50.997Z,1005.83
2018-09-05T11:33:51.029Z,1005.81
2018-09-05T11:34:51.140Z,1005.91
2018-09-05T11:35:51.063Z,1005.86
2018-09-05T11:36:51.122Z,1005.86
2018-09-05T11:37:51.112Z,1005.82
2018-09-05T11:38:51.127Z,1005.90
2018-09-05T11:39:51.148Z,1005.91
2018-09-05T11:40:51.172Z,1005.90
2018-09-05T11:41:51.192Z,1006.00
2018-09-05T11:42:51.212Z,1005.97
2018-09-05T11:43:51.235Z,1005.84
2018-09-05T11:44:51.260Z,1005.85
2018-09-05T11:45:51.277Z,1005.87
2018-09-05T11:46:51.296Z,1005.89
2018-09-05T11:47:51.323Z,1005.82
2018-09-05T11:48:51.336Z,1005.84
2018-09-05T11:49:51.360Z,1005.83
2018-09-05T11:50:51.383Z,1005.86
2018-09-05T11:51:51.402Z,1005.85
2018-09-05T11:52:51.421Z,1005.84
2018-09-05T11:53:51.441Z,1005.81
2018-09-05T11:54:51.460Z,1005.77
2018-09-05T11:55:51.476Z,1005.86
2018-09-05T11:56:51.517Z,1005.84
2018-09-05T11:57:51.522Z,1005.75
2018-09-05T11:58:51.589Z,1005.79
2018-09-05T11:59:51.565Z,1005.65
2018-09-05T12:00:51.584Z,1005.80
2018-09-05T12:01:51.608Z,1005.73
2018-09-05T12:02:51.627Z,1005.74
2018-09-05T12:03:51.652Z,1005.82
2018-09-05T12:04:51.793Z,1005.83
2018-09-05T12:05:51.696Z,1005.80
2018-09-05T12:06:51.716Z,1005.80
2018-09-05T12:07:51.739Z,1005.79